Time;durP1;ratioP1;P1;durP2;ratioP2;P2;SDS_P1;SDS_P2;PMS_P1;PMS_P2;Temp;Humidity;BMP_temperature;BMP_pressure;BME280_temperature;BME280_humidity;BME280_pressure;Samples;Min_cycle;Max_cycle;Signal;HPM_P1;HPM_P2
2023/03/03 00:00:40;;;;;;;285.30;85.40;;;;;;;-0.58;62.96;98764.28;5093408;28;20040;-83
2023/03/03 00:03:08;;;;;;;267.55;85.68;;;;;;;-0.58;62.87;98767.84;5095374;28;20069;-85
2023/03/03 00:05:34;;;;;;;259.52;83.90;;;;;;;-0.60;62.99;98762.66;5114453;28;20031;-85
2023/03/03 00:08:00;;;;;;;226.35;73.28;;;;;;;-0.64;62.73;98761.44;5099956;28;20032;-84
2023/03/03 00:10:26;;;;;;;214.07;69.40;;;;;;;-0.65;63.03;98764.34;5094724;28;20027;-84
2023/03/03 00:12:52;;;;;;;189.52;69.40;;;;;;;-0.67;63.27;98759.19;5096663;28;20027;-84
2023/03/03 00:15:21;;;;;;;200.27;68.57;;;;;;;-0.67;63.04;98761.88;5097385;28;20027;-84
2023/03/03 00:17:47;;;;;;;191.90;66.55;;;;;;;-0.68;63.00;98762.91;5096173;28;20087;-83
2023/03/03 00:20:30;;;;;;;183.88;71.47;;;;;;;-0.72;63.37;98761.69;5100819;28;20024;-84
2023/03/03 00:23:06;;;;;;;202.63;72.40;;;;;;;-0.72;63.38;98772.47;5097301;28;20059;-84
2023/03/03 00:25:33;;;;;;;214.70;74.68;;;;;;;-0.74;63.24;98769.16;5098326;28;20031;-84
2023/03/03 00:28:35;;;;;;;192.30;69.97;;;;;;;-0.75;63.46;98764.81;5096191;28;20051;-84
2023/03/03 00:31:14;;;;;;;184.90;70.10;;;;;;;-0.75;63.18;98772.91;5073761;28;20063;-84
2023/03/03 00:33:53;;;;;;;177.50;65.72;;;;;;;-0.75;63.25;98765.63;5094682;28;20028;-84
2023/03/03 00:36:37;;;;;;;187.80;69.65;;;;;;;-0.75;63.45;98764.81;5091931;28;20103;-84
2023/03/03 00:39:32;;;;;;;171.65;64.40;;;;;;;-0.77;63.66;98753.44;5092617;28;20032;-84
2023/03/03 00:41:59;;;;;;;170.77;62.35;;;;;;;-0.77;63.63;98754.25;5094798;28;20057;-84
2023/03/03 00:44:44;;;;;;;173.90;64.35;;;;;;;-0.83;63.43;98759.66;5094575;28;20066;-84
2023/03/03 00:47:36;;;;;;;167.25;62.20;;;;;;;-0.86;63.47;98752.03;5094965;28;20024;-84
2023/03/03 00:50:04;;;;;;;160.98;60.67;;;;;;;-0.88;63.50;98746.88;5091639;28;20042;-85
2023/03/03 00:52:34;;;;;;;166.18;63.80;;;;;;;-0.90;63.68;98743.56;5094053;28;20032;-85
2023/03/03 00:54:59;;;;;;;180.43;63.25;;;;;;;-0.89;63.28;98747.91;5090606;28;20024;-85
2023/03/03 00:57:24;;;;;;;164.65;63.90;;;;;;;-0.94;63.78;98743.13;5093702;28;20084;-84
2023/03/03 00:59:50;;;;;;;162.95;62.47;;;;;;;-0.93;63.97;98746.69;5088768;28;20094;-84
2023/03/03 01:02:15;;;;;;;153.38;59.65;;;;;;;-0.95;63.61;98746.88;5093531;28;20133;-85
2023/03/03 01:04:43;;;;;;;156.25;60.13;;;;;;;-0.94;63.60;98750.41;5085596;28;20038;-85
2023/03/03 01:07:08;;;;;;;148.82;57.47;;;;;;;-0.96;64.08;98745.22;5091130;28;20030;-88
2023/03/03 01:09:33;;;;;;;145.90;57.10;;;;;;;-0.96;63.71;98736.34;5090105;28;20111;-87
2023/03/03 01:11:59;;;;;;;139.02;55.47;;;;;;;-0.97;63.82;98737.38;5068964;28;20028;-88
2023/03/03 01:14:25;;;;;;;123.07;51.30;;;;;;;-0.97;64.03;98734.69;5088999;28;20031;-89
2023/03/03 01:16:50;;;;;;;124.20;51.13;;;;;;;-1.02;64.03;98729.94;5093183;28;20054;-84
2023/03/03 01:19:16;;;;;;;105.00;47.67;;;;;;;-1.04;63.71;98734.72;5089889;28;20103;-85
2023/03/03 01:21:41;;;;;;;102.78;46.15;;;;;;;-1.07;63.96;98729.75;5065055;28;20078;-85
2023/03/03 01:24:07;;;;;;;110.60;47.40;;;;;;;-1.09;64.19;98732.66;5084492;28;20024;-86
2023/03/03 01:26:32;;;;;;;119.05;50.00;;;;;;;-1.13;64.09;98730.59;5085884;28;20024;-85
2023/03/03 01:28:57;;;;;;;122.00;49.95;;;;;;;-1.15;64.20;98724.59;5086770;28;20095;-86
2023/03/03 01:31:23;;;;;;;97.38;43.42;;;;;;;-1.17;64.28;98724.00;5085019;28;20015;-85
2023/03/03 01:33:48;;;;;;;99.68;43.42;;;;;;;-1.18;64.25;98725.03;5085545;28;20036;-85
2023/03/03 01:36:13;;;;;;;96.18;42.70;;;;;;;-1.20;64.33;98720.69;5084004;28;20650;-86
2023/03/03 01:38:39;;;;;;;90.95;41.30;;;;;;;-1.22;64.27;98722.75;5079864;28;20531;-85
2023/03/03 01:41:04;;;;;;;92.40;41.88;;;;;;;-1.22;64.30;98716.53;5083292;28;20040;-85
2023/03/03 01:43:32;;;;;;;83.13;39.50;;;;;;;-1.24;64.31;98715.97;5082386;28;20767;-85
2023/03/03 01:45:57;;;;;;;94.80;42.55;;;;;;;-1.25;64.22;98728.56;5085134;28;20034;-85
2023/03/03 01:48:42;;;;;;;94.13;42.65;;;;;;;-1.28;64.57;98720.91;5087802;28;20111;-85
2023/03/03 01:51:23;;;;;;;88.88;40.85;;;;;;;-1.32;64.23;98725.06;5101965;28;20040;-85
2023/03/03 01:53:58;;;;;;;102.53;44.40;;;;;;;-1.33;64.52;98734.19;5099704;28;20053;-85
2023/03/03 01:56:24;;;;;;;101.15;45.08;;;;;;;-1.32;64.67;98719.69;5091568;28;20028;-85
2023/03/03 01:58:57;;;;;;;100.20;43.50;;;;;;;-1.33;64.48;98720.72;5105806;28;20023;-85
2023/03/03 02:01:26;;;;;;;101.90;43.83;;;;;;;-1.32;64.53;98719.69;5112463;28;20155;-85
2023/03/03 02:03:52;;;;;;;103.95;45.42;;;;;;;-1.31;64.86;98715.97;5111591;28;20753;-85
2023/03/03 02:06:22;;;;;;;102.07;45.28;;;;;;;-1.32;64.66;98706.22;5105448;28;20020;-84
2023/03/03 02:09:05;;;;;;;109.82;46.38;;;;;;;-1.33;64.55;98712.66;5091233;28;20528;-85
2023/03/03 02:11:33;;;;;;;121.75;51.67;;;;;;;-1.31;64.91;98718.66;5102378;28;20128;-84
2023/03/03 02:13:59;;;;;;;113.22;49.42;;;;;;;-1.31;65.03;98713.25;5111188;28;20035;-85
2023/03/03 02:16:24;;;;;;;104.50;44.97;;;;;;;-1.31;64.84;98715.16;5096434;28;20028;-85
2023/03/03 02:18:50;;;;;;;101.45;43.53;;;;;;;-1.30;64.79;98709.53;5091545;28;20038;-85
2023/03/03 02:21:19;;;;;;;103.80;44.42;;;;;;;-1.31;65.28;98699.00;5104043;28;20052;-85
2023/03/03 02:23:54;;;;;;;99.63;44.10;;;;;;;-1.31;65.08;98713.25;5088616;28;20041;-85
2023/03/03 02:26:27;;;;;;;104.70;46.08;;;;;;;-1.33;64.95;98725.28;5111730;28;20027;-85
2023/03/03 02:28:53;;;;;;;103.13;45.90;;;;;;;-1.37;65.21;98723.03;5093372;28;20480;-85
2023/03/03 02:31:21;;;;;;;114.95;49.38;;;;;;;-1.35;64.90;98733.56;5100150;28;20020;-85
2023/03/03 02:33:50;;;;;;;115.88;46.67;;;;;;;-1.38;65.26;98734.81;5092140;28;20480;-85
2023/03/03 02:36:24;;;;;;;109.47;46.03;;;;;;;-1.37;65.03;98735.63;5107015;28;20016;-85
2023/03/03 02:39:06;;;;;;;111.90;47.88;;;;;;;-1.42;65.46;98725.53;5099659;28;20151;-85
2023/03/03 02:41:31;;;;;;;110.60;46.70;;;;;;;-1.40;65.11;98730.69;5103630;28;20048;-85
2023/03/03 02:44:08;;;;;;;104.60;45.08;;;;;;;-1.43;65.29;98733.81;5110367;28;20026;-85
2023/03/03 02:46:41;;;;;;;100.60;45.80;;;;;;;-1.47;65.10;98735.28;5110505;28;20026;-85
2023/03/03 02:49:08;;;;;;;101.38;45.33;;;;;;;-1.52;65.06;98731.34;5081908;28;20024;-86
2023/03/03 02:51:34;;;;;;;108.82;45.38;;;;;;;-1.52;65.13;98725.13;5090550;28;20028;-85
2023/03/03 02:53:59;;;;;;;109.70;46.03;;;;;;;-1.51;65.19;98733.00;5108004;28;20034;-84
2023/03/03 02:56:25;;;;;;;106.72;43.85;;;;;;;-1.52;65.35;98725.97;5092780;28;20388;-84
2023/03/03 02:58:51;;;;;;;107.88;45.63;;;;;;;-1.53;65.19;98716.25;5090358;28;20024;-84
2023/03/03 03:01:16;;;;;;;105.00;45.50;;;;;;;-1.57;65.16;98719.56;5090216;28;20028;-85
2023/03/03 03:03:42;;;;;;;108.82;47.22;;;;;;;-1.57;65.47;98723.09;5089942;28;20043;-84
2023/03/03 03:06:07;;;;;;;112.18;47.28;;;;;;;-1.57;65.35;98715.00;5095677;28;20016;-85
2023/03/03 03:08:33;;;;;;;103.60;45.92;;;;;;;-1.58;65.86;98718.75;5089860;28;20557;-84
2023/03/03 03:10:58;;;;;;;110.07;47.10;;;;;;;-1.60;64.98;98722.66;5090044;28;20035;-85
2023/03/03 03:13:24;;;;;;;127.78;51.65;;;;;;;-1.61;65.37;98721.00;5089344;28;20020;-84
2023/03/03 03:15:50;;;;;;;127.97;53.17;;;;;;;-1.63;65.15;98713.16;5089212;28;20131;-81
2023/03/03 03:18:16;;;;;;;132.13;51.75;;;;;;;-1.65;65.28;98715.22;5089809;28;20395;-85
2023/03/03 03:20:42;;;;;;;119.85;48.13;;;;;;;-1.67;65.30;98711.94;5090164;28;20095;-83
2023/03/03 03:23:08;;;;;;;124.72;50.80;;;;;;;-1.68;65.43;98705.72;5074641;28;20127;-82
2023/03/03 03:25:34;;;;;;;112.95;47.72;;;;;;;-1.67;65.30;98706.53;5093726;28;20098;-82
2023/03/03 03:28:01;;;;;;;120.38;48.67;;;;;;;-1.69;65.55;98697.88;5094188;28;20118;-82
2023/03/03 03:30:26;;;;;;;119.07;49.15;;;;;;;-1.70;65.06;98696.22;5094315;28;20388;-82
2023/03/03 03:32:52;;;;;;;110.40;47.92;;;;;;;-1.72;65.32;98701.81;5106766;28;20031;-82
2023/03/03 03:35:17;;;;;;;108.15;45.97;;;;;;;-1.73;65.42;98704.69;5113858;28;20034;-83
2023/03/03 03:37:43;;;;;;;114.15;48.85;;;;;;;-1.76;65.35;98708.63;5114547;28;20577;-82
2023/03/03 03:40:10;;;;;;;108.18;47.38;;;;;;;-1.74;65.21;98703.03;5111778;28;20040;-81
2023/03/03 03:42:37;;;;;;;109.78;48.95;;;;;;;-1.74;65.22;98703.88;5095456;28;20031;-82
2023/03/03 03:45:03;;;;;;;110.32;47.33;;;;;;;-1.77;65.59;98701.59;5093529;28;20031;-82
2023/03/03 03:47:29;;;;;;;108.97;47.00;;;;;;;-1.80;65.25;98699.34;5093248;28;20032;-82
2023/03/03 03:49:55;;;;;;;114.15;47.00;;;;;;;-1.79;65.45;98703.69;5093428;28;20028;-82
2023/03/03 03:52:20;;;;;;;104.72;46.05;;;;;;;-1.80;65.02;98693.97;5094072;28;20092;-82
2023/03/03 03:54:45;;;;;;;107.10;46.17;;;;;;;-1.81;65.24;98695.81;5097234;28;20027;-79
2023/03/03 03:57:11;;;;;;;102.82;44.92;;;;;;;-1.82;65.59;98701.41;5113721;28;20043;-79
2023/03/03 03:59:36;;;;;;;118.68;50.63;;;;;;;-1.81;65.38;98706.56;5108158;28;20024;-79
2023/03/03 04:02:02;;;;;;;97.65;42.88;;;;;;;-1.81;65.66;98703.06;5093298;28;20024;-79
2023/03/03 04:04:27;;;;;;;99.40;43.75;;;;;;;-1.80;65.66;98712.78;5091423;28;20432;-79
2023/03/03 04:06:52;;;;;;;113.50;44.70;;;;;;;-1.79;65.53;98706.38;5100860;28;20383;-79
2023/03/03 04:09:18;;;;;;;107.47;44.00;;;;;;;-1.79;65.55;98709.06;5112324;28;20703;-80
2023/03/03 04:11:43;;;;;;;107.13;44.05;;;;;;;-1.77;65.86;98714.22;5111773;28;20034;-79
2023/03/03 04:14:08;;;;;;;115.13;43.95;;;;;;;-1.78;65.69;98707.19;5091602;28;20059;-79
2023/03/03 04:16:34;;;;;;;115.68;45.05;;;;;;;-1.79;65.58;98714.44;5091321;28;20578;-79
2023/03/03 04:18:59;;;;;;;115.90;44.28;;;;;;;-1.81;65.52;98714.63;5074680;28;20485;-79
2023/03/03 04:21:25;;;;;;;115.47;45.90;;;;;;;-1.81;65.51;98720.00;5093425;28;20020;-79
2023/03/03 04:23:52;;;;;;;118.22;44.92;;;;;;;-1.82;65.53;98721.03;5094059;28;20039;-79
2023/03/03 04:26:17;;;;;;;111.78;44.17;;;;;;;-1.81;65.63;98722.69;5112968;28;20118;-79
2023/03/03 04:28:43;;;;;;;106.15;44.47;;;;;;;-1.81;65.86;98714.63;5113645;28;20149;-79
2023/03/03 04:31:09;;;;;;;104.13;42.40;;;;;;;-1.81;65.90;98717.31;5113226;28;20084;-79
2023/03/03 04:33:35;;;;;;;99.65;43.88;;;;;;;-1.82;65.72;98722.91;5113047;28;20017;-78
2023/03/03 04:36:00;;;;;;;94.05;42.55;;;;;;;-1.86;65.55;98711.78;5107574;28;20043;-79
2023/03/03 04:38:26;;;;;;;92.60;41.72;;;;;;;-1.88;66.03;98708.47;5102146;28;20544;-79
2023/03/03 04:40:51;;;;;;;90.03;41.55;;;;;;;-1.89;65.76;98705.97;5094489;28;20043;-79
2023/03/03 04:43:16;;;;;;;112.75;43.28;;;;;;;-1.92;65.48;98715.28;5112538;28;20047;-79
2023/03/03 04:45:42;;;;;;;127.32;47.13;;;;;;;-1.92;66.08;98723.34;5108973;28;20589;-79
2023/03/03 04:48:08;;;;;;;119.03;44.97;;;;;;;-1.93;65.99;98721.69;5088441;28;20027;-79
2023/03/03 04:50:33;;;;;;;107.20;42.55;;;;;;;-1.95;66.02;98721.88;5091706;28;20051;-80
2023/03/03 04:52:59;;;;;;;101.78;41.28;;;;;;;-1.97;66.03;98718.56;5092317;28;20020;-79
2023/03/03 04:55:24;;;;;;;89.60;39.05;;;;;;;-1.98;66.11;98714.25;5090530;28;20431;-79
2023/03/03 04:57:50;;;;;;;91.82;39.15;;;;;;;-1.99;66.21;98712.59;5091401;28;20078;-79
2023/03/03 05:00:15;;;;;;;99.28;40.80;;;;;;;-2.00;66.45;98710.13;5091916;28;20027;-79
2023/03/03 05:02:41;;;;;;;89.75;38.08;;;;;;;-2.01;65.92;98705.78;5072905;28;20040;-79
2023/03/03 05:05:12;;;;;;;110.97;45.28;;;;;;;-2.02;66.21;98707.63;5091838;28;20024;-79
2023/03/03 05:07:38;;;;;;;102.75;39.83;;;;;;;-2.02;66.44;98709.50;5102820;28;20024;-80
2023/03/03 05:10:04;;;;;;;99.30;39.33;;;;;;;-2.03;66.34;98711.34;5112627;28;20426;-79
2023/03/03 05:12:30;;;;;;;223.15;67.50;;;;;;;-2.02;66.25;98706.81;5112891;28;20035;-79
2023/03/03 05:14:55;;;;;;;234.02;64.40;;;;;;;-2.04;66.36;98706.19;5112428;28;20028;-79
2023/03/03 05:17:20;;;;;;;157.10;49.45;;;;;;;-2.05;66.70;98717.97;5111906;28;20063;-78
2023/03/03 05:19:46;;;;;;;102.38;41.00;;;;;;;-2.10;66.74;98730.16;5105235;28;20024;-79
2023/03/03 05:22:11;;;;;;;89.70;39.30;;;;;;;-2.12;66.52;98734.94;5092196;28;20481;-79
2023/03/03 05:24:36;;;;;;;96.25;39.75;;;;;;;-2.15;66.86;98739.91;5103489;28;20093;-79
2023/03/03 05:27:02;;;;;;;91.80;38.67;;;;;;;-2.17;67.17;98742.78;5091184;28;20543;-79
2023/03/03 05:29:30;;;;;;;89.68;37.88;;;;;;;-2.17;67.09;98741.97;5099506;28;20028;-79
2023/03/03 05:31:58;;;;;;;87.15;35.40;;;;;;;-2.22;67.41;98747.13;5111814;28;20053;-79
2023/03/03 05:34:24;;;;;;;81.72;34.95;;;;;;;-2.30;68.10;98754.34;5096061;28;20466;-79
2023/03/03 05:36:50;;;;;;;85.13;37.47;;;;;;;-2.39;67.41;98760.94;5090564;28;20591;-79
2023/03/03 05:39:15;;;;;;;83.28;35.35;;;;;;;-2.43;67.64;98757.00;5091561;28;20050;-79
2023/03/03 05:41:41;;;;;;;94.22;41.05;;;;;;;-2.50;68.08;98761.56;5091076;28;20049;-79
2023/03/03 05:44:06;;;;;;;84.18;38.22;;;;;;;-2.56;68.27;98771.25;5072741;28;20063;-79
2023/03/03 05:46:32;;;;;;;91.57;36.38;;;;;;;-2.59;67.76;98768.97;5072661;28;20349;-79
2023/03/03 05:48:57;;;;;;;85.57;37.15;;;;;;;-2.54;68.08;98777.25;5090875;28;20035;-79
2023/03/03 05:51:22;;;;;;;88.50;38.95;;;;;;;-2.53;68.32;98778.91;5081138;28;20058;-79
2023/03/03 05:53:48;;;;;;;84.78;35.42;;;;;;;-2.50;68.11;98778.50;5091084;28;20464;-79
2023/03/03 05:56:13;;;;;;;89.75;34.97;;;;;;;-2.50;69.14;98778.50;5073028;28;20024;-79
2023/03/03 05:58:39;;;;;;;85.03;35.75;;;;;;;-2.54;68.93;98793.34;5091205;28;20024;-80
2023/03/03 06:01:04;;;;;;;81.22;34.47;;;;;;;-2.56;68.64;98792.72;5091413;28;20484;-79
2023/03/03 06:03:30;;;;;;;78.55;34.60;;;;;;;-2.58;69.01;98801.00;5093157;28;20176;-79
2023/03/03 06:05:56;;;;;;;76.53;34.25;;;;;;;-2.57;68.95;98799.97;5107147;28;20143;-79
2023/03/03 06:08:21;;;;;;;81.22;35.15;;;;;;;-2.58;69.52;98801.00;5072353;28;20031;-79
2023/03/03 06:10:47;;;;;;;88.25;36.90;;;;;;;-2.56;68.91;98806.16;5091173;28;20131;-79
2023/03/03 06:13:12;;;;;;;89.25;36.70;;;;;;;-2.49;69.13;98814.25;5091421;28;20036;-79
2023/03/03 06:15:37;;;;;;;86.32;35.53;;;;;;;-2.49;69.50;98823.13;5110418;28;20544;-79
2023/03/03 06:18:03;;;;;;;89.57;37.33;;;;;;;-2.47;69.76;98826.44;5089605;28;20028;-79
2023/03/03 06:20:28;;;;;;;88.68;36.15;;;;;;;-2.47;69.72;98831.00;5090847;28;20054;-78
2023/03/03 06:22:53;;;;;;;86.05;36.45;;;;;;;-2.45;69.68;98828.94;5090394;28;20507;-79
2023/03/03 06:25:19;;;;;;;84.85;34.70;;;;;;;-2.42;69.57;98831.19;5090298;28;20051;-78
2023/03/03 06:27:44;;;;;;;86.22;35.60;;;;;;;-2.37;69.78;98828.72;5072463;28;20032;-79
2023/03/03 06:30:11;;;;;;;72.70;32.03;;;;;;;-2.35;69.97;98820.47;5093735;28;20027;-79
2023/03/03 06:32:37;;;;;;;76.28;32.10;;;;;;;-2.34;70.07;98828.31;5092870;28;20375;-79
2023/03/03 06:35:03;;;;;;;76.00;31.65;;;;;;;-2.30;69.88;98818.00;5110437;28;20019;-79
2023/03/03 06:37:30;;;;;;;71.00;29.98;;;;;;;-2.23;69.82;98807.28;5110571;28;20038;-79
2023/03/03 06:39:55;;;;;;;76.25;32.13;;;;;;;-2.18;69.42;98816.38;5110591;28;20434;-79
2023/03/03 06:42:21;;;;;;;75.10;31.67;;;;;;;-2.08;69.88;98823.19;5110443;28;20088;-79
2023/03/03 06:44:46;;;;;;;71.70;31.83;;;;;;;-2.06;69.71;98821.97;5110621;28;20429;-79
2023/03/03 06:47:12;;;;;;;79.18;33.33;;;;;;;-2.00;69.96;98836.47;5094929;28;20073;-81
2023/03/03 06:49:37;;;;;;;82.97;36.30;;;;;;;-1.93;69.92;98839.13;5092262;28;20385;-81
2023/03/03 06:52:12;;;;;;;78.60;32.45;;;;;;;-1.93;69.91;98847.19;5089660;28;20114;-81
2023/03/03 06:54:39;;;;;;;83.82;32.83;;;;;;;-1.96;70.14;98832.31;5090085;28;20024;-80
2023/03/03 06:57:37;;;;;;;69.25;27.73;;;;;;;-1.93;70.29;98833.75;5072290;28;20385;-80
2023/03/03 07:00:11;;;;;;;67.28;27.65;;;;;;;-1.91;70.43;98840.59;5028551;28;20038;-81
2023/03/03 07:02:37;;;;;;;64.85;27.35;;;;;;;-1.90;70.11;98838.72;5090996;28;20036;-81
2023/03/03 07:05:09;;;;;;;70.07;28.45;;;;;;;-1.96;70.09;98826.94;5090211;28;20028;-81
2023/03/03 07:07:35;;;;;;;74.55;28.77;;;;;;;-1.98;70.32;98831.69;5098636;28;20240;-81
2023/03/03 07:10:00;;;;;;;77.80;32.40;;;;;;;-2.00;70.21;98828.38;5090554;28;20122;-80
2023/03/03 07:12:29;;;;;;;75.63;30.70;;;;;;;-2.01;70.47;98835.59;5094849;28;20792;-80
2023/03/03 07:15:12;;;;;;;96.07;36.30;;;;;;;-1.98;70.17;98839.75;5089072;28;20039;-80
2023/03/03 07:17:47;;;;;;;93.95;32.50;;;;;;;-1.94;70.16;98849.06;5094131;28;20027;-80
2023/03/03 07:20:20;;;;;;;82.65;31.42;;;;;;;-1.87;70.21;98838.31;5110468;28;20070;-80
2023/03/03 07:22:45;;;;;;;76.15;29.27;;;;;;;-1.80;70.54;98834.59;5096739;28;20043;-79
2023/03/03 07:25:32;;;;;;;95.63;36.67;;;;;;;-1.76;70.26;98834.19;5089996;28;20020;-80
2023/03/03 07:28:13;;;;;;;84.43;33.63;;;;;;;-1.72;70.41;98828.19;5108887;28;20072;-81
2023/03/03 07:30:39;;;;;;;65.15;25.98;;;;;;;-1.68;70.09;98821.38;5093174;28;20082;-82
2023/03/03 07:33:15;;;;;;;68.38;28.15;;;;;;;-1.60;70.37;98839.16;5075697;28;20020;-82
2023/03/03 07:35:43;;;;;;;76.25;27.70;;;;;;;-1.57;70.18;98849.50;5096616;28;20040;-80
2023/03/03 07:38:36;;;;;;;65.10;25.45;;;;;;;-1.55;70.27;98857.34;5089408;28;20427;-80
2023/03/03 07:41:04;;;;;;;55.15;22.45;;;;;;;-1.54;70.27;98859.00;5090008;28;20052;-79
2023/03/03 07:43:42;;;;;;;55.13;22.35;;;;;;;-1.50;70.43;98868.31;5102325;28;20035;-83
2023/03/03 07:46:35;;;;;;;52.33;20.65;;;;;;;-1.50;70.65;98860.25;5090110;28;20094;-80
2023/03/03 07:49:14;;;;;;;52.88;20.75;;;;;;;-1.51;70.10;98829.00;5089626;28;20055;-80
2023/03/03 07:51:43;;;;;;;57.67;23.20;;;;;;;-1.45;70.05;98835.44;5089911;28;20217;-80
2023/03/03 07:54:34;;;;;;;50.35;21.20;;;;;;;-1.42;70.17;98841.22;5088253;28;20545;-80
2023/03/03 07:57:13;;;;;;;49.55;20.77;;;;;;;-1.38;70.31;98838.91;5088616;28;20020;-78
2023/03/03 08:00:13;;;;;;;68.50;26.63;;;;;;;-1.33;70.38;98852.56;5070302;28;20058;-79
2023/03/03 08:02:44;;;;;;;68.18;26.67;;;;;;;-1.30;70.73;98871.00;5088987;28;20031;-79
2023/03/03 08:05:50;;;;;;;54.80;22.63;;;;;;;-1.28;70.39;98876.19;5088382;28;20476;-81
2023/03/03 08:08:48;;;;;;;51.38;20.95;;;;;;;-1.27;70.43;98843.69;5084664;28;20521;-80
2023/03/03 08:11:13;;;;;;;54.85;21.92;;;;;;;-1.24;70.31;98851.34;5060597;28;20050;-79
2023/03/03 08:13:41;;;;;;;57.28;23.15;;;;;;;-1.22;70.47;98841.19;5113740;28;20028;-78
2023/03/03 08:16:10;;;;;;;59.28;22.40;;;;;;;-1.22;70.21;98837.66;5099276;28;20031;-80
2023/03/03 08:18:47;;;;;;;55.05;23.65;;;;;;;-1.20;69.93;98841.81;5093246;28;20031;-82
2023/03/03 08:21:15;;;;;;;58.65;24.25;;;;;;;-1.16;70.32;98836.00;5093369;28;20024;-81
2023/03/03 08:23:41;;;;;;;60.58;23.80;;;;;;;-1.10;70.39;98848.63;5092928;28;20067;-82
2023/03/03 08:26:07;;;;;;;51.55;20.63;;;;;;;-1.07;70.66;98859.78;5092990;28;20496;-80
2023/03/03 08:28:32;;;;;;;48.40;20.55;;;;;;;-1.02;70.49;98858.34;5092895;28;20035;-81
2023/03/03 08:30:58;;;;;;;51.95;21.77;;;;;;;-1.00;70.53;98854.38;5092818;28;20028;-82
2023/03/03 08:33:23;;;;;;;62.50;22.23;;;;;;;-0.98;70.53;98855.00;5092616;28;20039;-81
2023/03/03 08:35:48;;;;;;;68.60;24.38;;;;;;;-0.93;70.47;98849.81;5111637;28;20334;-81
2023/03/03 08:38:18;;;;;;;64.82;23.58;;;;;;;-0.87;70.60;98858.91;5110606;28;20514;-81
2023/03/03 08:40:45;;;;;;;71.70;25.80;;;;;;;-0.83;70.81;98867.41;5091947;28;20082;-81
2023/03/03 08:43:15;;;;;;;64.30;23.35;;;;;;;-0.82;70.97;98877.13;5092253;28;20028;-81
2023/03/03 08:45:42;;;;;;;60.20;22.10;;;;;;;-0.78;70.49;98870.28;5091972;28;20028;-82
2023/03/03 08:48:08;;;;;;;66.18;24.02;;;;;;;-0.74;70.72;98876.91;5092163;28;20024;-80
2023/03/03 08:50:33;;;;;;;64.43;24.52;;;;;;;-0.70;70.40;98880.84;5074458;28;20031;-82
2023/03/03 08:52:59;;;;;;;62.63;21.23;;;;;;;-0.66;70.64;98881.22;5093832;28;20036;-81
2023/03/03 08:55:24;;;;;;;56.33;19.02;;;;;;;-0.66;70.54;98863.22;5092971;28;20111;-82
2023/03/03 08:57:50;;;;;;;57.78;22.15;;;;;;;-0.66;71.04;98862.38;5093351;28;20055;-82
2023/03/03 09:00:17;;;;;;;54.08;21.38;;;;;;;-0.62;70.82;98869.81;5092884;28;20032;-82
2023/03/03 09:02:43;;;;;;;60.63;22.10;;;;;;;-0.62;71.05;98864.44;5071279;28;20599;-82
2023/03/03 09:05:09;;;;;;;63.10;22.63;;;;;;;-0.58;71.11;98864.81;5101143;28;20110;-82
2023/03/03 09:07:34;;;;;;;72.18;26.35;;;;;;;-0.54;71.04;98857.13;5097473;28;20024;-78
2023/03/03 09:10:00;;;;;;;66.13;22.85;;;;;;;-0.50;71.23;98850.28;5112804;28;20377;-82
2023/03/03 09:12:34;;;;;;;53.05;19.90;;;;;;;-0.45;70.88;98847.78;5112298;28;20027;-77
2023/03/03 09:15:11;;;;;;;59.67;21.70;;;;;;;-0.44;71.10;98857.50;5112172;28;20028;-79
2023/03/03 09:17:36;;;;;;;61.65;22.33;;;;;;;-0.39;71.09;98855.00;5090349;28;20026;-81
2023/03/03 09:20:33;;;;;;;65.15;22.30;;;;;;;-0.34;71.09;98852.50;5100895;28;20052;-81
2023/03/03 09:23:24;;;;;;;54.72;20.38;;;;;;;-0.28;71.40;98860.75;5109517;28;20035;-79
2023/03/03 09:25:50;;;;;;;61.17;22.88;;;;;;;-0.23;71.24;98863.63;5094266;28;20036;-81
2023/03/03 09:28:27;;;;;;;57.20;18.73;;;;;;;-0.24;71.62;98856.59;5084359;28;20056;-78
2023/03/03 09:30:56;;;;;;;57.65;19.52;;;;;;;-0.27;72.19;98857.03;5097365;28;20028;-80
2023/03/03 09:33:39;;;;;;;57.27;21.03;;;;;;;-0.36;71.83;98846.47;5099542;28;20016;-80
2023/03/03 09:36:24;;;;;;;58.20;22.20;;;;;;;-0.35;71.78;98850.00;5087221;28;20036;-81
2023/03/03 09:38:51;;;;;;;56.15;20.92;;;;;;;-0.33;71.73;98843.38;5092167;28;20477;-83
2023/03/03 09:41:27;;;;;;;58.60;22.35;;;;;;;-0.26;71.51;98837.13;5096265;28;20055;-82
2023/03/03 09:43:55;;;;;;;61.30;22.42;;;;;;;-0.21;72.50;98848.06;5090515;28;20028;-81
2023/03/03 09:46:36;;;;;;;55.85;22.27;;;;;;;-0.21;71.97;98846.19;5066349;28;20107;-80
2023/03/03 09:49:22;;;;;;;55.42;20.23;;;;;;;-0.19;72.08;98841.41;5088849;28;20024;-80
2023/03/03 09:52:26;;;;;;;44.13;16.83;;;;;;;-0.16;72.55;98856.31;5086637;28;20031;-81
2023/03/03 09:55:15;;;;;;;51.30;18.45;;;;;;;-0.15;72.38;98857.97;5004238;28;20697;-78
2023/03/03 09:58:23;;;;;;;52.00;18.95;;;;;;;-0.13;72.00;98852.38;5090283;28;20080;-79
2023/03/03 10:01:20;;;;;;;50.67;18.67;;;;;;;-0.16;72.04;98864.41;5074814;28;20044;-79
2023/03/03 10:04:23;;;;;;;47.60;17.98;;;;;;;-0.10;72.55;98868.13;5089173;28;20027;-77
2023/03/03 10:06:51;;;;;;;47.45;20.20;;;;;;;-0.05;72.06;98869.13;5093779;28;20037;-79
2023/03/03 10:09:35;;;;;;;45.35;17.95;;;;;;;-0.02;72.32;98879.47;5067777;28;20036;-79
2023/03/03 10:12:06;;;;;;;50.10;19.20;;;;;;;-0.08;73.05;98872.25;5093560;28;20078;-77
2023/03/03 10:14:37;;;;;;;95.97;33.38;;;;;;;-0.13;72.96;98873.94;5094735;28;20062;-79
2023/03/03 10:17:18;;;;;;;75.88;26.55;;;;;;;-0.16;72.36;98869.78;5080839;28;20037;-80
2023/03/03 10:20:02;;;;;;;57.97;21.13;;;;;;;-0.12;72.47;98865.63;5087016;28;20780;-80
2023/03/03 10:22:47;;;;;;;45.92;17.42;;;;;;;-0.10;73.15;98874.31;5080895;28;20032;-81
2023/03/03 10:25:34;;;;;;;57.05;20.17;;;;;;;-0.09;72.53;98877.88;5023920;28;20140;-79
2023/03/03 10:28:29;;;;;;;55.65;20.83;;;;;;;-0.01;72.89;98883.00;5084877;28;20035;-79
2023/03/03 10:31:06;;;;;;;51.80;18.23;;;;;;;0.02;72.93;98884.44;5083395;28;20039;-77
2023/03/03 10:33:45;;;;;;;54.97;21.42;;;;;;;0.04;72.69;98890.44;5092692;28;20062;-76
2023/03/03 10:36:32;;;;;;;52.63;18.88;;;;;;;0.06;73.11;98882.97;5092490;28;20036;-81
2023/03/03 10:39:03;;;;;;;54.03;21.08;;;;;;;0.11;72.90;98885.84;5087079;28;20134;-79
2023/03/03 10:42:02;;;;;;;45.90;18.80;;;;;;;0.16;72.76;98894.09;5094105;28;20518;-80
2023/03/03 10:44:59;;;;;;;43.33;16.48;;;;;;;0.19;73.04;98888.28;5096400;28;20032;-83
2023/03/03 10:47:27;;;;;;;46.40;16.33;;;;;;;0.27;72.91;98885.28;5021870;28;20039;-85
2023/03/03 10:50:23;;;;;;;46.30;17.17;;;;;;;0.27;72.86;98881.78;5091487;28;20039;-80
2023/03/03 10:53:10;;;;;;;49.17;17.73;;;;;;;0.27;72.22;98876.38;5078265;28;20051;-80
2023/03/03 10:55:49;;;;;;;48.47;16.83;;;;;;;0.31;73.18;98874.91;5081307;28;20035;-79
2023/03/03 10:58:35;;;;;;;35.90;14.07;;;;;;;0.31;72.37;98876.75;5085313;28;20028;-77
2023/03/03 11:01:12;;;;;;;44.25;15.88;;;;;;;0.33;72.97;98880.06;5073596;28;20414;-82
2023/03/03 11:03:59;;;;;;;45.03;16.58;;;;;;;0.32;72.74;98883.81;5085725;28;20067;-80
2023/03/03 11:06:50;;;;;;;45.65;17.08;;;;;;;0.30;72.94;98878.66;5093640;28;20035;-79
2023/03/03 11:09:28;;;;;;;52.35;18.23;;;;;;;0.29;73.00;98883.22;5058421;28;20118;-79
2023/03/03 11:12:07;;;;;;;49.85;18.45;;;;;;;0.31;72.67;98879.47;5082941;28;20035;-79
2023/03/03 11:14:46;;;;;;;49.78;19.80;;;;;;;0.32;72.68;98871.16;5091035;28;20484;-79
2023/03/03 11:17:48;;;;;;;51.05;18.67;;;;;;;0.35;72.76;98872.59;5087722;28;20055;-78
2023/03/03 11:20:45;;;;;;;48.03;18.17;;;;;;;0.36;73.13;98876.94;5044482;28;20028;-81
2023/03/03 11:23:16;;;;;;;49.08;18.98;;;;;;;0.35;73.03;98875.28;5079738;28;20537;-79
2023/03/03 11:26:06;;;;;;;49.55;19.58;;;;;;;0.34;73.10;98860.13;5087689;28;20032;-78
2023/03/03 11:28:50;;;;;;;56.35;21.88;;;;;;;0.36;73.25;98874.25;5090076;28;20078;-80
2023/03/03 11:31:39;;;;;;;42.25;17.15;;;;;;;0.34;72.98;98879.03;5087641;28;20036;-79
2023/03/03 11:34:18;;;;;;;39.33;15.75;;;;;;;0.34;72.94;98879.03;5085705;28;20427;-80